createdAt,value
2022-08-03T00:01:57.154Z,100780.41
2022-08-03T00:04:53.087Z,100770.81
2022-08-03T00:07:41.395Z,100764.59
2022-08-03T00:10:22.076Z,100760.16
2022-08-03T00:13:03.831Z,100754.16
2022-08-03T00:15:51.062Z,100744.44
2022-08-03T00:18:39.315Z,100746.88
2022-08-03T00:21:22.085Z,100750.94
2022-08-03T00:24:10.250Z,100745.78
2022-08-03T00:26:51.082Z,100746.88
2022-08-03T00:29:59.632Z,100752.97
2022-08-03T00:32:47.177Z,100739.91
2022-08-03T00:35:45.855Z,100739.06
2022-08-03T00:38:34.055Z,100743.03
2022-08-03T00:41:22.217Z,100735.03
2022-08-03T00:44:10.067Z,100727.94
2022-08-03T00:46:58.254Z,100735.25
2022-08-03T00:49:42.083Z,100734.03
2022-08-03T00:52:30.310Z,100719.16
2022-08-03T00:55:13.022Z,100723.25
2022-08-03T00:58:02.048Z,100722.16
2022-08-03T01:00:45.368Z,100723.84
2022-08-03T01:03:33.001Z,100719.19
2022-08-03T01:06:23.228Z,100724.28
2022-08-03T01:09:18.993Z,100720.56
2022-08-03T01:12:09.382Z,100714.94
2022-08-03T01:15:03.089Z,100712.41
2022-08-03T01:17:51.418Z,100715.88
2022-08-03T01:20:41.984Z,100713.03
2022-08-03T01:23:48.992Z,100706.78
2022-08-03T01:27:07.960Z,100708.50
2022-08-03T01:30:15.452Z,100695.53
2022-08-03T01:33:08.446Z,100696.00
2022-08-03T01:35:54.299Z,100694.22
2022-08-03T01:38:46.069Z,100691.69
2022-08-03T01:41:32.175Z,100694.22
2022-08-03T01:44:29.713Z,100695.91
2022-08-03T01:47:14.162Z,100690.63
2022-08-03T01:50:04.190Z,100697.81
2022-08-03T01:52:48.212Z,100694.09
2022-08-03T01:55:39.963Z,100696.72
2022-08-03T01:58:31.998Z,100693.38
2022-08-03T02:01:23.981Z,100688.19
2022-08-03T02:04:08.155Z,100687.03
2022-08-03T02:07:00.863Z,100687.25
2022-08-03T02:09:46.502Z,100689.91
2022-08-03T02:12:36.933Z,100686.41
2022-08-03T02:15:26.912Z,100686.31
2022-08-03T02:18:10.958Z,100681.38
2022-08-03T02:21:01.899Z,100691.69
2022-08-03T02:23:59.573Z,100697.69
2022-08-03T02:26:44.883Z,100693.97
2022-08-03T02:29:38.635Z,100691.06
2022-08-03T02:32:28.016Z,100690.91
2022-08-03T02:35:13.987Z,100692.31
2022-08-03T02:38:06.884Z,100690.53
2022-08-03T02:40:51.116Z,100689.69
2022-08-03T02:44:06.722Z,100688.41
2022-08-03T02:46:53.870Z,100681.41
2022-08-03T02:49:51.025Z,100682.81
2022-08-03T02:52:35.846Z,100682.94
2022-08-03T02:55:29.078Z,100683.19
2022-08-03T02:58:10.842Z,100682.22
2022-08-03T03:00:54.879Z,100676.13
2022-08-03T03:03:44.874Z,100680.31
2022-08-03T03:06:34.040Z,100673.97
2022-08-03T03:09:16.827Z,100679.22
2022-08-03T03:12:07.048Z,100685.44
2022-08-03T03:14:48.830Z,100679.13
2022-08-03T03:17:39.371Z,100681.41
2022-08-03T03:20:29.717Z,100677.09
2022-08-03T03:23:18.826Z,100680.47
2022-08-03T03:26:02.315Z,100676.03
2022-08-03T03:28:51.825Z,100680.19
2022-08-03T03:31:39.867Z,100669.16
2022-08-03T03:34:28.836Z,100675.59
2022-08-03T03:37:11.094Z,100665.75
2022-08-03T03:39:58.825Z,100665.53
2022-08-03T03:42:40.009Z,100668.53
2022-08-03T03:45:29.877Z,100665.34
2022-08-03T03:48:19.861Z,100666.78
2022-08-03T03:51:08.765Z,100673.34
2022-08-03T03:54:08.832Z,100668.53
2022-08-03T03:56:56.780Z,100666.03
2022-08-03T03:59:37.976Z,100666.25
2022-08-03T04:02:27.749Z,100663.41
2022-08-03T04:05:33.756Z,100657.38
2022-08-03T04:08:41.449Z,100664.22
2022-08-03T04:11:29.288Z,100658.84
2022-08-03T04:14:15.598Z,100656.22
2022-08-03T04:17:07.755Z,100647.69
2022-08-03T04:20:00.955Z,100650.28
2022-08-03T04:22:43.824Z,100649.25
2022-08-03T04:25:34.968Z,100652.47
2022-08-03T04:28:30.885Z,100657.00
2022-08-03T04:31:21.860Z,100664.06
2022-08-03T04:34:04.005Z,100651.13
2022-08-03T04:36:57.753Z,100656.84
2022-08-03T04:39:41.065Z,100651.81
2022-08-03T04:42:30.693Z,100649.41
2022-08-03T04:45:27.719Z,100642.19
2022-08-03T04:48:09.775Z,100645.56
2022-08-03T04:50:58.708Z,100652.28
2022-08-03T04:53:48.925Z,100648.47
2022-08-03T04:56:31.708Z,100648.25
2022-08-03T04:59:13.953Z,100658.03
2022-08-03T05:02:01.836Z,100654.47
2022-08-03T05:04:49.882Z,100658.16
2022-08-03T05:07:36.265Z,100659.22
2022-08-03T05:10:26.643Z,100662.47
2022-08-03T05:13:12.039Z,100658.16
2022-08-03T05:16:06.682Z,100659.34
2022-08-03T05:18:55.689Z,100660.91
2022-08-03T05:21:52.707Z,100663.53
2022-08-03T05:24:34.428Z,100665.22
2022-08-03T05:27:25.668Z,100664.75
2022-08-03T05:30:27.263Z,100669.94
2022-08-03T05:33:15.637Z,100665.72
2022-08-03T05:36:04.544Z,100670.97
2022-08-03T05:38:45.981Z,100666.44
2022-08-03T05:41:37.036Z,100673.28
2022-08-03T05:44:21.094Z,100677.00
2022-08-03T05:47:08.609Z,100663.59
2022-08-03T05:49:49.800Z,100682.44
2022-08-03T05:52:37.712Z,100675.66
2022-08-03T05:55:19.781Z,100682.63
2022-08-03T05:58:09.628Z,100679.13
2022-08-03T06:00:53.778Z,100679.50
2022-08-03T06:03:41.671Z,100684.28
2022-08-03T06:06:32.463Z,100678.16
2022-08-03T06:09:15.397Z,100680.69
2022-08-03T06:12:03.583Z,100682.16
2022-08-03T06:14:45.436Z,100689.25
2022-08-03T06:17:37.736Z,100691.75
2022-08-03T06:20:27.540Z,100695.25
2022-08-03T06:23:15.914Z,100700.19
2022-08-03T06:26:03.796Z,100698.66
2022-08-03T06:28:52.758Z,100692.91
2022-08-03T06:31:41.549Z,100693.50
2022-08-03T06:34:35.662Z,100691.00
2022-08-03T06:37:24.786Z,100694.69
2022-08-03T06:40:05.606Z,100694.22
2022-08-03T06:42:47.681Z,100698.19
2022-08-03T06:45:38.699Z,100696.63
2022-08-03T06:48:20.237Z,100700.25
2022-08-03T06:51:09.522Z,100699.75
2022-08-03T06:53:57.638Z,100698.34
2022-08-03T06:56:38.743Z,100703.47
2022-08-03T07:00:07.598Z,100707.91
2022-08-03T07:02:28.532Z,100706.47
2022-08-03T07:05:17.528Z,100710.44
2022-08-03T07:08:03.255Z,100709.97
2022-08-03T07:10:51.505Z,100707.78
2022-08-03T07:13:39.497Z,100707.09
2022-08-03T07:16:21.625Z,100708.19
2022-08-03T07:21:51.221Z,100706.25
2022-08-03T07:24:43.631Z,100714.06
2022-08-03T07:27:27.003Z,100718.16
2022-08-03T07:30:14.485Z,100709.97
2022-08-03T07:32:56.267Z,100712.38
2022-08-03T07:35:44.493Z,100711.78
2022-08-03T07:38:32.689Z,100716.72
2022-08-03T07:41:16.428Z,100709.00
2022-08-03T07:44:11.505Z,100718.94
2022-08-03T07:46:59.539Z,100713.16
2022-08-03T07:49:47.791Z,100713.41
2022-08-03T07:52:53.482Z,100713.59
2022-08-03T07:55:42.457Z,100712.88
2022-08-03T07:58:31.662Z,100717.78
2022-08-03T08:01:15.205Z,100706.59
2022-08-03T08:04:03.722Z,100703.72
2022-08-03T08:06:45.443Z,100703.81
2022-08-03T08:09:27.173Z,100704.31
2022-08-03T08:12:17.975Z,100708.00
2022-08-03T08:15:07.943Z,100702.28
2022-08-03T08:17:50.423Z,100699.44
2022-08-03T08:20:34.889Z,100694.00
2022-08-03T08:23:43.468Z,100701.31
2022-08-03T08:26:25.409Z,100703.94
2022-08-03T08:29:13.633Z,100693.91
2022-08-03T08:31:56.381Z,100696.53
2022-08-03T08:34:45.521Z,100692.59
2022-08-03T08:37:26.612Z,100689.81
2022-08-03T08:40:16.388Z,100698.53
2022-08-03T08:42:58.894Z,100699.94
2022-08-03T08:45:48.536Z,100704.63
2022-08-03T08:48:33.610Z,100706.78
2022-08-03T08:51:22.363Z,100705.44
2022-08-03T08:54:07.299Z,100704.75
2022-08-03T08:56:56.468Z,100700.13
2022-08-03T08:59:47.963Z,100695.63
2022-08-03T09:02:38.421Z,100695.13
2022-08-03T09:05:41.394Z,100698.84
2022-08-03T09:08:31.350Z,100698.66
2022-08-03T09:11:12.816Z,100697.75
2022-08-03T09:14:00.381Z,100705.56
2022-08-03T09:16:42.555Z,100703.16
2022-08-03T09:19:30.343Z,100688.75
2022-08-03T09:22:21.580Z,100688.00
2022-08-03T09:25:24.264Z,100679.94
2022-08-03T09:29:01.755Z,100682.66
2022-08-03T09:31:24.332Z,100684.44
2022-08-03T09:34:08.527Z,100691.03
2022-08-03T09:36:57.889Z,100684.63
2022-08-03T09:39:52.321Z,100683.28
2022-08-03T09:42:38.164Z,100682.47
2022-08-03T09:45:41.314Z,100681.56
2022-08-03T09:48:33.308Z,100678.75
2022-08-03T09:51:33.144Z,100677.47
2022-08-03T09:54:34.524Z,100687.50
2022-08-03T09:57:30.667Z,100687.44
2022-08-03T10:00:21.297Z,100680.88
2022-08-03T10:03:12.519Z,100676.00
2022-08-03T10:06:00.329Z,100678.34
2022-08-03T10:08:41.487Z,100676.41
2022-08-03T10:11:41.640Z,100674.22
2022-08-03T10:14:31.841Z,100670.38
2022-08-03T10:17:19.446Z,100672.22
2022-08-03T10:20:00.497Z,100671.66
2022-08-03T10:22:50.262Z,100680.00
2022-08-03T10:25:40.255Z,100676.06
2022-08-03T10:28:30.234Z,100672.56
2022-08-03T10:31:14.527Z,100680.59
2022-08-03T10:34:07.364Z,100676.88
2022-08-03T10:36:50.450Z,100671.97
2022-08-03T10:39:39.219Z,100668.66
2022-08-03T10:42:20.426Z,100667.94
2022-08-03T10:45:15.237Z,100662.38
2022-08-03T10:48:08.219Z,100667.75
2022-08-03T10:50:58.210Z,100662.22
2022-08-03T10:53:55.018Z,100661.31
2022-08-03T10:57:14.302Z,100666.47
2022-08-03T11:00:07.443Z,100667.69
2022-08-03T11:03:27.254Z,100658.69
2022-08-03T11:06:24.738Z,100660.09
2022-08-03T11:09:30.211Z,100664.78
2022-08-03T11:12:31.425Z,100657.50
2022-08-03T11:15:21.203Z,100662.09
2022-08-03T11:18:16.412Z,100652.59
2022-08-03T11:21:08.292Z,100654.28
2022-08-03T11:24:03.105Z,100646.28
2022-08-03T11:27:27.153Z,100647.66
2022-08-03T11:30:20.191Z,100645.69
2022-08-03T11:33:08.922Z,100655.22
2022-08-03T11:36:16.191Z,100657.69
2022-08-03T11:39:16.578Z,100655.59
2022-08-03T11:42:05.162Z,100652.34
2022-08-03T11:45:02.137Z,100648.84
2022-08-03T11:47:51.619Z,100652.41
2022-08-03T11:50:33.398Z,100650.56
2022-08-03T11:53:24.155Z,100642.84
2022-08-03T11:56:12.548Z,100648.78
2022-08-03T11:59:19.893Z,100644.03
2022-08-03T12:02:16.891Z,100646.81
2022-08-03T12:05:08.138Z,100649.97
2022-08-03T12:08:03.273Z,100649.38
2022-08-03T12:10:57.152Z,100646.22
2022-08-03T12:14:45.595Z,100644.19
2022-08-03T12:16:56.222Z,100644.13
2022-08-03T12:19:49.318Z,100636.41
2022-08-03T12:22:41.114Z,100639.69
2022-08-03T12:25:39.580Z,100645.88
2022-08-03T12:28:36.794Z,100641.81
2022-08-03T12:31:26.270Z,100645.50
2022-08-03T12:34:21.097Z,100647.34
2022-08-03T12:37:22.142Z,100649.78
2022-08-03T12:40:21.371Z,100647.00
2022-08-03T12:43:06.146Z,100648.53
2022-08-03T12:46:01.270Z,100648.25
2022-08-03T12:49:15.329Z,100644.69
2022-08-03T12:52:08.170Z,100648.31
2022-08-03T12:55:04.321Z,100650.72
2022-08-03T12:57:50.047Z,100648.09
2022-08-03T13:00:39.076Z,100641.91
2022-08-03T13:03:38.891Z,100643.00
2022-08-03T13:06:24.658Z,100631.81
2022-08-03T13:09:21.090Z,100637.13
2022-08-03T13:12:19.043Z,100639.31
2022-08-03T13:15:10.031Z,100642.00
2022-08-03T13:17:58.232Z,100642.44
2022-08-03T13:20:40.025Z,100646.47
2022-08-03T13:23:28.022Z,100648.53
2022-08-03T13:26:09.250Z,100649.97
2022-08-03T13:28:59.015Z,100638.94
2022-08-03T13:31:50.501Z,100641.81
2022-08-03T13:34:40.009Z,100633.41
2022-08-03T13:37:22.478Z,100637.28
2022-08-03T13:40:12.112Z,100631.53
2022-08-03T13:42:56.203Z,100631.34
2022-08-03T13:45:51.238Z,100634.22
2022-08-03T13:48:40.994Z,100639.88
2022-08-03T13:51:29.168Z,100635.84
2022-08-03T13:54:09.977Z,100631.09
2022-08-03T13:57:00.763Z,100632.53
2022-08-03T13:59:59.969Z,100635.53
2022-08-03T14:02:49.161Z,100638.06
2022-08-03T14:05:31.887Z,100640.53
2022-08-03T14:08:19.967Z,100634.19
2022-08-03T14:11:08.067Z,100637.38
2022-08-03T14:13:49.670Z,100643.69
2022-08-03T14:16:37.428Z,100639.91
2022-08-03T14:19:21.349Z,100636.06
2022-08-03T14:22:13.128Z,100647.56
2022-08-03T14:25:01.256Z,100642.91
2022-08-03T14:27:44.966Z,100642.53
2022-08-03T14:30:26.702Z,100645.69
2022-08-03T14:33:15.007Z,100637.16
2022-08-03T14:36:04.919Z,100644.66
2022-08-03T14:38:53.057Z,100634.50
2022-08-03T14:41:41.140Z,100633.47
2022-08-03T14:44:22.943Z,100629.66
2022-08-03T14:47:11.127Z,100625.47
2022-08-03T14:50:37.035Z,100631.72
2022-08-03T14:52:56.222Z,100621.97
2022-08-03T14:55:49.552Z,100625.06
2022-08-03T14:58:38.181Z,100627.06
2022-08-03T15:02:04.485Z,100622.75
2022-08-03T15:04:22.740Z,100627.25
2022-08-03T15:07:10.915Z,100624.00
2022-08-03T15:10:02.273Z,100621.22
2022-08-03T15:12:51.917Z,100617.03
2022-08-03T15:15:33.103Z,100610.72
2022-08-03T15:18:21.907Z,100625.31
2022-08-03T15:21:20.817Z,100614.59
2022-08-03T15:24:19.116Z,100613.38
2022-08-03T15:27:01.937Z,100608.31
2022-08-03T15:30:07.562Z,100608.13
2022-08-03T15:32:57.973Z,100606.09
2022-08-03T15:35:39.716Z,100609.22
2022-08-03T15:38:29.857Z,100612.72
2022-08-03T15:41:24.848Z,100612.00
2022-08-03T15:44:14.863Z,100616.38
2022-08-03T15:47:03.063Z,100615.44
2022-08-03T15:49:43.859Z,100617.44
2022-08-03T15:52:31.831Z,100623.88
2022-08-03T15:55:15.576Z,100618.56
2022-08-03T15:59:03.434Z,100616.47
2022-08-03T16:01:08.107Z,100609.53
2022-08-03T16:03:55.879Z,100613.72
2022-08-03T16:06:37.018Z,100611.75
2022-08-03T16:09:43.213Z,100610.00
2022-08-03T16:12:25.025Z,100603.59
2022-08-03T16:15:14.818Z,100605.22
2022-08-03T16:18:04.823Z,100603.75
2022-08-03T16:20:53.007Z,100598.59
2022-08-03T16:23:34.812Z,100596.16
2022-08-03T16:26:22.776Z,100586.47
2022-08-03T16:29:23.091Z,100594.16
2022-08-03T16:32:11.998Z,100596.22
2022-08-03T16:34:54.806Z,100590.06
2022-08-03T16:37:50.797Z,100593.09
2022-08-03T16:40:44.769Z,100588.75
2022-08-03T16:43:26.800Z,100583.03
2022-08-03T16:46:14.764Z,100589.38
2022-08-03T16:49:02.991Z,100594.31
2022-08-03T16:51:50.278Z,100589.97
2022-08-03T16:54:38.983Z,100586.09
2022-08-03T16:57:57.818Z,100581.94
2022-08-03T17:00:34.149Z,100596.97
2022-08-03T17:03:27.810Z,100602.69
2022-08-03T17:06:24.988Z,100595.53
2022-08-03T17:09:25.749Z,100586.09
2022-08-03T17:12:13.731Z,100597.81
2022-08-03T17:14:55.605Z,100590.59
2022-08-03T17:17:47.593Z,100593.25
2022-08-03T17:20:42.697Z,100592.41
2022-08-03T17:23:45.737Z,100598.59
2022-08-03T17:26:36.742Z,100595.94
2022-08-03T17:29:29.821Z,100601.44
2022-08-03T17:32:16.277Z,100602.78
2022-08-03T17:35:06.010Z,100601.31
2022-08-03T17:38:03.034Z,100594.56
2022-08-03T17:40:48.166Z,100587.56
2022-08-03T17:44:14.377Z,100588.00
2022-08-03T17:46:50.722Z,100595.81
2022-08-03T17:49:33.127Z,100602.59
2022-08-03T17:52:35.706Z,100604.97
2022-08-03T17:55:55.379Z,100606.59
2022-08-03T17:58:54.951Z,100602.69
2022-08-03T18:02:22.231Z,100604.53
2022-08-03T18:05:22.139Z,100612.25
2022-08-03T18:08:10.966Z,100621.63
2022-08-03T18:11:14.644Z,100611.09
2022-08-03T18:14:16.320Z,100611.16
2022-08-03T18:17:02.495Z,100609.50
2022-08-03T18:20:02.082Z,100618.16
2022-08-03T18:22:47.648Z,100612.31
2022-08-03T18:25:38.273Z,100614.81
2022-08-03T18:28:34.667Z,100611.47
2022-08-03T18:31:59.556Z,100610.75
2022-08-03T18:34:33.177Z,100622.03
2022-08-03T18:37:15.903Z,100625.06
2022-08-03T18:40:07.382Z,100618.09
2022-08-03T18:42:55.713Z,100624.22
2022-08-03T18:45:55.854Z,100628.28
2022-08-03T18:48:53.581Z,100629.97
2022-08-03T18:51:43.461Z,100633.81
2022-08-03T18:54:45.556Z,100628.78
2022-08-03T18:57:34.819Z,100625.50
2022-08-03T19:00:42.403Z,100630.69
2022-08-03T19:06:47.582Z,100643.53
2022-08-03T19:09:44.683Z,100635.00
2022-08-03T19:12:37.383Z,100647.25
2022-08-03T19:15:36.550Z,100639.78
2022-08-03T19:18:26.554Z,100639.94
2022-08-03T19:21:15.710Z,100656.81
2022-08-03T19:24:10.447Z,100647.94
2022-08-03T19:27:02.581Z,100656.94
2022-08-03T19:29:58.719Z,100654.66
2022-08-03T19:32:48.229Z,100657.16
2022-08-03T19:35:51.595Z,100653.38
2022-08-03T19:38:36.614Z,100654.81
2022-08-03T19:41:27.523Z,100657.91
2022-08-03T19:44:19.914Z,100663.19
2022-08-03T19:47:17.051Z,100657.53
2022-08-03T19:50:05.954Z,100660.63
2022-08-03T19:53:04.597Z,100671.66
2022-08-03T19:55:55.600Z,100672.34
2022-08-03T19:58:39.579Z,100679.63
2022-08-03T20:01:28.256Z,100679.09
2022-08-03T20:04:10.619Z,100679.47
2022-08-03T20:07:03.488Z,100681.59
2022-08-03T20:09:56.317Z,100681.72
2022-08-03T20:12:40.495Z,100688.63
2022-08-03T20:15:32.132Z,100694.88
2022-08-03T20:18:16.878Z,100698.78
2022-08-03T20:21:14.874Z,100706.91
2022-08-03T20:24:23.282Z,100706.06
2022-08-03T20:27:13.470Z,100707.13
2022-08-03T20:30:07.353Z,100708.91
2022-08-03T20:32:56.688Z,100716.09
2022-08-03T20:35:37.493Z,100715.25
2022-08-03T20:38:27.057Z,100720.94
2022-08-03T20:41:09.680Z,100713.50
2022-08-03T20:43:57.710Z,100716.44
2022-08-03T20:47:00.292Z,100717.50
2022-08-03T20:49:50.508Z,100723.22
2022-08-03T20:52:31.694Z,100716.47
2022-08-03T20:55:20.502Z,100714.28
2022-08-03T20:58:28.440Z,100712.81
2022-08-03T21:01:16.636Z,100713.13
2022-08-03T21:03:58.553Z,100717.53
2022-08-03T21:06:54.253Z,100720.50
2022-08-03T21:09:44.068Z,100717.13
2022-08-03T21:12:47.666Z,100724.41
2022-08-03T21:13:08.590Z,100629.84
2022-08-03T21:16:11.321Z,100717.13
2022-08-03T21:18:51.708Z,100712.09
2022-08-03T21:21:35.565Z,100707.56
2022-08-03T21:24:27.855Z,100712.84
2022-08-03T21:27:09.504Z,100707.34
2022-08-03T21:29:53.105Z,100712.72
2022-08-03T21:32:46.459Z,100718.94
2022-08-03T21:35:28.660Z,100712.00
2022-08-03T21:38:30.107Z,100716.84
2022-08-03T21:41:20.391Z,100719.34
2022-08-03T21:44:02.574Z,100723.25
2022-08-03T21:46:51.348Z,100720.72
2022-08-03T21:50:07.021Z,100719.03
2022-08-03T21:52:54.355Z,100734.19
2022-08-03T21:55:45.364Z,100729.34
2022-08-03T21:58:33.275Z,100737.25
2022-08-03T22:01:23.447Z,100730.59
2022-08-03T22:04:45.864Z,100731.53
2022-08-03T22:07:16.398Z,100728.19
2022-08-03T22:10:07.321Z,100727.25
2022-08-03T22:12:49.735Z,100729.75
2022-08-03T22:15:40.330Z,100732.28
2022-08-03T22:18:29.293Z,100727.75
2022-08-03T22:21:28.025Z,100726.06
2022-08-03T22:24:18.294Z,100717.75
2022-08-03T22:27:21.459Z,100722.59
2022-08-03T22:30:12.120Z,100724.72
2022-08-03T22:33:11.297Z,100720.75
2022-08-03T22:35:59.391Z,100729.03
2022-08-03T22:38:41.952Z,100723.34
2022-08-03T22:41:31.285Z,100734.94
2022-08-03T22:44:19.670Z,100731.13
2022-08-03T22:47:07.301Z,100735.63
2022-08-03T22:50:30.770Z,100737.53
2022-08-03T22:53:02.300Z,100736.19
2022-08-03T22:55:44.518Z,100738.16
2022-08-03T22:58:33.287Z,100737.84
2022-08-03T23:01:16.508Z,100736.56
2022-08-03T23:04:10.260Z,100737.69
2022-08-03T23:07:05.243Z,100736.75
2022-08-03T23:09:50.143Z,100737.81
2022-08-03T23:12:39.272Z,100743.16
2022-08-03T23:15:21.688Z,100747.78
2022-08-03T23:18:11.232Z,100740.00
2022-08-03T23:21:01.289Z,100748.81
2022-08-03T23:23:53.492Z,100762.72
2022-08-03T23:26:42.209Z,100753.78
2022-08-03T23:29:24.416Z,100756.41
2022-08-03T23:32:14.259Z,100756.41
2022-08-03T23:35:23.314Z,100752.00
2022-08-03T23:38:33.208Z,100764.16
2022-08-03T23:41:17.406Z,100757.22
2022-08-03T23:44:07.259Z,100766.06
2022-08-03T23:46:55.411Z,100767.09
2022-08-03T23:49:36.173Z,100763.00
2022-08-03T23:52:36.169Z,100771.34
2022-08-03T23:55:27.397Z,100764.53
2022-08-03T23:58:27.186Z,100760.41
